createdAt,value
2018-05-18T00:03:06.381Z,10.60
2018-05-18T00:08:09.478Z,10.50
2018-05-18T00:13:12.971Z,10.40
2018-05-18T00:18:16.089Z,10.30
2018-05-18T00:23:20.842Z,10.20
2018-05-18T00:28:24.407Z,10.10
2018-05-18T00:33:28.647Z,10.00
2018-05-18T00:38:31.807Z,10.00
2018-05-18T00:43:35.711Z,9.90
2018-05-18T00:48:38.797Z,9.80
2018-05-18T00:53:42.415Z,9.70
2018-05-18T00:58:46.344Z,9.70
2018-05-18T01:03:49.494Z,9.60
2018-05-18T01:08:53.072Z,9.60
2018-05-18T01:13:56.250Z,9.60
2018-05-18T01:18:59.447Z,9.70
2018-05-18T01:24:02.595Z,9.80
2018-05-18T01:34:11.111Z,9.90
2018-05-18T01:39:15.023Z,10.00
2018-05-18T01:44:18.990Z,10.10
2018-05-18T01:49:22.946Z,10.20
2018-05-18T01:54:26.179Z,10.20
2018-05-18T01:59:29.542Z,10.30
2018-05-18T02:04:33.652Z,10.20
2018-05-18T02:09:37.935Z,10.20
2018-05-18T02:14:41.102Z,10.20
2018-05-18T02:19:44.587Z,10.20
2018-05-18T02:24:48.806Z,10.30
2018-05-18T02:29:51.927Z,10.30
2018-05-18T02:34:55.015Z,10.30
2018-05-18T02:39:58.891Z,10.30
2018-05-18T02:45:03.477Z,10.40
2018-05-18T02:50:06.745Z,10.40
2018-05-18T02:55:09.971Z,10.40
2018-05-18T03:00:14.057Z,10.50
2018-05-18T03:05:17.622Z,10.50
2018-05-18T03:10:21.855Z,10.50
2018-05-18T03:15:24.959Z,10.50
2018-05-18T03:20:29.183Z,10.50
2018-05-18T03:25:32.315Z,10.50
2018-05-18T03:30:36.178Z,10.50
2018-05-18T03:35:39.269Z,10.60
2018-05-18T03:40:43.150Z,10.50
2018-05-18T03:45:46.251Z,10.60
2018-05-18T03:50:50.275Z,10.60
2018-05-18T03:55:54.365Z,10.50
2018-05-18T04:00:57.952Z,10.50
2018-05-18T04:11:48.284Z,10.50
2018-05-18T04:16:52.139Z,10.50
2018-05-18T04:21:55.244Z,10.50
2018-05-18T04:26:58.483Z,10.50
2018-05-18T04:32:02.447Z,10.50
2018-05-18T04:37:06.391Z,10.60
2018-05-18T04:42:09.884Z,10.60
2018-05-18T04:47:13.758Z,10.50
2018-05-18T04:52:18.383Z,10.60
2018-05-18T04:57:21.508Z,10.60
2018-05-18T05:02:24.622Z,10.60
2018-05-18T05:07:27.702Z,10.60
2018-05-18T05:12:30.869Z,10.60
2018-05-18T05:17:33.929Z,10.60
2018-05-18T05:22:37.027Z,10.70
2018-05-18T05:27:40.130Z,10.70
2018-05-18T05:32:43.236Z,10.70
2018-05-18T05:37:46.355Z,10.70
2018-05-18T05:42:50.226Z,10.80
2018-05-18T05:47:53.326Z,10.80
2018-05-18T05:52:56.431Z,10.80
2018-05-18T05:57:59.517Z,10.80
2018-05-18T06:03:03.383Z,10.80
2018-05-18T06:08:06.487Z,10.80
2018-05-18T06:13:09.607Z,10.90
2018-05-18T06:18:13.844Z,10.90
2018-05-18T06:23:16.953Z,11.00
2018-05-18T06:28:20.839Z,10.90
2018-05-18T06:33:23.995Z,11.00
2018-05-18T06:48:37.098Z,11.10
2018-05-18T06:53:40.177Z,11.10
2018-05-18T06:58:43.403Z,11.10
2018-05-18T07:03:46.544Z,11.10
2018-05-18T07:08:49.859Z,11.10
2018-05-18T07:13:52.968Z,11.10
2018-05-18T07:18:56.059Z,11.20
2018-05-18T07:24:00.303Z,11.30
2018-05-18T07:34:09.341Z,11.40
2018-05-18T07:39:12.437Z,11.40
2018-05-18T07:44:15.527Z,11.50
2018-05-18T07:49:18.651Z,11.50
2018-05-18T07:54:21.749Z,11.60
2018-05-18T07:59:24.899Z,11.80
2018-05-18T08:04:27.943Z,12.00
2018-05-18T08:09:31.038Z,12.20
2018-05-18T08:14:34.136Z,12.30
2018-05-18T08:34:50.874Z,14.60
2018-05-18T08:44:59.927Z,15.00
2018-05-18T09:00:12.297Z,15.20
2018-05-18T09:05:15.411Z,16.10
2018-05-18T09:10:18.506Z,16.90
2018-05-18T09:20:26.843Z,17.10
2018-05-18T09:30:35.164Z,17.90
2018-05-18T09:40:43.087Z,18.70
2018-05-18T09:45:46.179Z,18.60
2018-05-18T09:50:49.282Z,18.20
2018-05-18T09:55:53.151Z,18.60
2018-05-18T10:00:56.250Z,18.70
2018-05-18T10:05:59.346Z,18.30
2018-05-18T10:11:03.566Z,17.70
2018-05-18T10:21:11.107Z,17.40
2018-05-18T10:26:14.958Z,17.30
2018-05-18T10:36:22.871Z,17.00
2018-05-18T10:46:31.907Z,16.80
2018-05-18T11:01:44.270Z,16.60
2018-05-18T11:06:48.120Z,16.50
2018-05-18T11:22:00.851Z,16.50
2018-05-18T11:27:04.332Z,16.50
2018-05-18T11:32:07.490Z,16.30
2018-05-18T11:42:15.691Z,16.30
2018-05-18T11:47:18.794Z,16.30
2018-05-18T11:52:22.643Z,16.20
2018-05-18T11:57:25.746Z,16.20
2018-05-18T12:02:29.143Z,16.20
2018-05-18T12:07:32.903Z,16.30
2018-05-18T12:12:37.119Z,16.20
2018-05-18T12:17:40.214Z,16.30
2018-05-18T12:27:47.760Z,16.30
2018-05-18T12:32:50.839Z,16.40
2018-05-18T12:37:54.682Z,16.40
2018-05-18T12:53:07.007Z,16.60
2018-05-18T12:58:10.090Z,16.60
2018-05-18T13:03:13.174Z,16.70
2018-05-18T13:08:16.354Z,16.80
2018-05-18T13:13:20.479Z,16.80
2018-05-18T13:18:23.559Z,16.80
2018-05-18T13:33:36.268Z,16.90
2018-05-18T13:38:39.408Z,17.00
2018-05-18T13:43:43.210Z,16.90
2018-05-18T13:48:46.308Z,16.90
2018-05-18T13:53:49.390Z,17.10
2018-05-18T13:58:53.615Z,17.10
2018-05-18T14:03:57.099Z,17.20
2018-05-18T14:09:01.324Z,17.20
2018-05-18T14:14:04.410Z,17.10
2018-05-18T14:19:08.262Z,17.10
2018-05-18T14:24:11.347Z,17.20
2018-05-18T14:29:15.567Z,17.30
2018-05-18T14:34:18.659Z,17.40
2018-05-18T14:39:21.743Z,17.40
2018-05-18T14:44:24.834Z,17.50
2018-05-18T14:49:29.063Z,17.50
2018-05-18T14:59:36.988Z,17.50
2018-05-18T15:04:41.208Z,17.60
2018-05-18T15:09:44.686Z,17.60
2018-05-18T15:19:52.603Z,17.80
2018-05-18T15:24:56.525Z,17.80
2018-05-18T15:30:00.684Z,17.80
2018-05-18T15:40:08.598Z,17.70
2018-05-18T15:45:11.678Z,17.80
2018-05-18T15:50:14.771Z,17.80
2018-05-18T16:00:23.071Z,17.90
2018-05-18T16:05:26.923Z,17.80
2018-05-18T16:10:31.184Z,17.80
2018-05-18T16:20:40.215Z,17.70
2018-05-18T16:25:43.298Z,17.70
2018-05-18T16:30:46.387Z,17.70
2018-05-18T16:35:50.621Z,17.70
2018-05-18T16:40:54.462Z,17.60
2018-05-18T16:45:57.546Z,17.60
2018-05-18T16:51:01.779Z,17.40
2018-05-18T17:01:10.825Z,17.20
2018-05-18T17:06:13.923Z,17.10
2018-05-18T17:11:17.015Z,17.00
2018-05-18T17:16:20.123Z,16.90
2018-05-18T17:21:23.213Z,16.90
2018-05-18T17:26:27.074Z,16.80
2018-05-18T17:31:30.159Z,16.70
2018-05-18T17:36:34.015Z,16.70
2018-05-18T17:41:38.243Z,16.70
2018-05-18T17:46:42.835Z,16.70
2018-05-18T17:51:46.316Z,16.60
2018-05-18T17:56:49.411Z,16.50
2018-05-18T18:01:53.275Z,16.50
2018-05-18T18:06:56.754Z,16.50
2018-05-18T18:11:59.848Z,16.40
2018-05-18T18:17:05.020Z,16.30
2018-05-18T18:22:08.106Z,16.20
2018-05-18T18:27:11.195Z,16.10
2018-05-18T18:32:14.319Z,16.00
2018-05-18T18:37:18.783Z,16.00
2018-05-18T18:42:23.011Z,15.80
2018-05-18T18:47:26.504Z,15.70
2018-05-18T18:52:29.595Z,15.60
2018-05-18T18:57:32.695Z,15.50
2018-05-18T19:02:36.694Z,15.40
2018-05-18T19:07:39.782Z,15.30
2018-05-18T19:17:48.934Z,15.00
2018-05-18T19:22:53.159Z,14.90
2018-05-18T19:27:56.246Z,14.70
2018-05-18T19:32:59.723Z,14.60
2018-05-18T19:38:02.807Z,14.50
2018-05-18T19:43:06.350Z,14.40
2018-05-18T19:48:09.453Z,14.20
2018-05-18T19:53:14.011Z,14.20
2018-05-18T19:58:18.027Z,14.00
2018-05-18T20:03:21.132Z,14.00
2018-05-18T20:08:26.620Z,13.90
2018-05-18T20:13:29.707Z,13.90
2018-05-18T20:18:33.192Z,13.90
2018-05-18T20:23:36.391Z,13.90
2018-05-18T20:28:40.246Z,13.90
2018-05-18T20:33:44.179Z,13.90
2018-05-18T20:38:47.862Z,13.80
2018-05-18T20:43:50.958Z,13.90
2018-05-18T20:48:54.159Z,13.80
2018-05-18T20:53:58.129Z,13.70
2018-05-18T20:59:02.151Z,13.70
2018-05-18T21:04:05.281Z,13.60
2018-05-18T21:09:08.447Z,13.50
2018-05-18T21:14:13.488Z,13.40
2018-05-18T21:19:17.382Z,13.30
2018-05-18T21:24:20.994Z,13.30
2018-05-18T21:29:24.105Z,13.20
2018-05-18T21:34:27.210Z,13.10
2018-05-18T21:39:30.700Z,13.10
2018-05-18T21:44:34.943Z,13.00
2018-05-18T21:49:38.051Z,13.00
2018-05-18T21:54:41.147Z,12.90
2018-05-18T21:59:45.382Z,12.80
2018-05-18T22:04:49.249Z,12.70
2018-05-18T22:09:53.859Z,12.70
2018-05-18T22:14:57.919Z,12.60
2018-05-18T22:20:02.558Z,12.50
2018-05-18T22:25:07.040Z,12.40
2018-05-18T22:30:10.899Z,12.30
2018-05-18T22:35:14.770Z,12.30
2018-05-18T22:40:18.700Z,12.20
2018-05-18T22:45:22.572Z,12.20
2018-05-18T22:50:26.891Z,12.10
2018-05-18T22:55:29.976Z,12.00
2018-05-18T23:00:33.826Z,12.00
2018-05-18T23:05:37.687Z,12.00
2018-05-18T23:10:40.766Z,11.90
2018-05-18T23:15:43.854Z,11.90
2018-05-18T23:20:46.943Z,11.90
2018-05-18T23:25:51.276Z,11.90
2018-05-18T23:30:54.259Z,11.80
2018-05-18T23:35:57.346Z,11.80
2018-05-18T23:41:00.648Z,11.70
2018-05-18T23:46:03.820Z,11.70
2018-05-18T23:51:07.667Z,11.70
2018-05-18T23:56:10.762Z,11.60
